Time;durP1;ratioP1;P1;durP2;ratioP2;P2;SDS_P1;SDS_P2;PMS_P1;PMS_P2;Temp;Humidity;BMP_temperature;BMP_pressure;BME280_temperature;BME280_humidity;BME280_pressure;Samples;Min_cycle;Max_cycle;Signal;HPM_P1;HPM_P2
2020/12/21 00:01:17;;;;;;;15.43;3.20;;;;;;;9.80;72.79;100212.50;5011385;28;20026;-88
2020/12/21 00:03:43;;;;;;;15.07;2.90;;;;;;;9.87;72.15;100209.38;5011253;28;20293;-88
2020/12/21 00:06:14;;;;;;;13.13;2.45;;;;;;;9.84;72.92;100201.69;5011577;28;20026;-88
2020/12/21 00:08:39;;;;;;;10.68;2.75;;;;;;;9.90;72.89;100206.53;5011576;28;20044;-88
2020/12/21 00:11:05;;;;;;;11.00;2.63;;;;;;;9.93;72.60;100201.09;5014443;28;20113;-88
2020/12/21 00:13:31;;;;;;;9.00;1.90;;;;;;;9.96;72.15;100201.81;5014613;28;20105;-88
2020/12/21 00:15:56;;;;;;;11.77;2.13;;;;;;;10.01;72.60;100210.19;5015367;28;20049;-88
2020/12/21 00:18:22;;;;;;;7.00;1.40;;;;;;;9.99;72.70;100212.06;5015168;28;20022;-88
2020/12/21 00:20:47;;;;;;;8.65;1.92;;;;;;;9.98;72.27;100213.03;5015071;28;20080;-88
2020/12/21 00:23:12;;;;;;;5.18;1.88;;;;;;;10.00;73.16;100217.22;5014975;28;20022;-89
2020/12/21 00:25:38;;;;;;;5.93;1.50;;;;;;;10.02;72.72;100210.09;5015611;28;20488;-88
2020/12/21 00:28:03;;;;;;;10.18;2.60;;;;;;;9.97;72.95;100211.34;5014592;28;20511;-88
2020/12/21 00:30:29;;;;;;;5.55;1.90;;;;;;;10.04;72.89;100210.81;5015017;28;20357;-88
2020/12/21 00:32:54;;;;;;;8.75;2.05;;;;;;;10.01;72.79;100210.19;5014813;28;20037;-88
2020/12/21 00:35:19;;;;;;;4.65;1.80;;;;;;;10.03;73.30;100200.44;5014697;28;20029;-88
2020/12/21 00:37:45;;;;;;;5.95;1.85;;;;;;;10.05;73.71;100194.16;5014452;28;20033;-88
2020/12/21 00:40:10;;;;;;;7.30;1.88;;;;;;;10.06;73.19;100187.13;5014709;28;20054;-88
2020/12/21 00:42:35;;;;;;;6.57;1.60;;;;;;;10.10;73.42;100180.72;5014478;28;20460;-88
2020/12/21 00:45:01;;;;;;;8.38;2.17;;;;;;;10.03;73.49;100182.94;5014681;28;20025;-88
2020/12/21 00:47:26;;;;;;;7.60;2.00;;;;;;;10.07;73.31;100178.28;5014828;28;20494;-88
2020/12/21 00:49:51;;;;;;;11.13;1.88;;;;;;;10.08;73.07;100170.31;5014543;28;20033;-88
2020/12/21 00:52:17;;;;;;;8.30;2.10;;;;;;;10.07;73.08;100173.91;5014288;28;20026;-88
2020/12/21 00:54:42;;;;;;;9.07;2.05;;;;;;;10.07;73.08;100173.03;5012976;28;20099;-88
2020/12/21 00:57:08;;;;;;;8.73;2.70;;;;;;;10.03;73.39;100161.94;5014889;28;20069;-88
2020/12/21 00:59:34;;;;;;;13.35;2.00;;;;;;;10.08;73.71;100153.75;5014445;28;20031;-89
2020/12/21 01:01:59;;;;;;;9.63;2.10;;;;;;;10.13;73.17;100146.41;5014461;28;20112;-88
2020/12/21 01:04:25;;;;;;;10.77;2.55;;;;;;;10.11;73.49;100138.63;5014092;28;20113;-88
2020/12/21 01:06:54;;;;;;;13.80;2.35;;;;;;;10.16;73.32;100143.53;5014313;28;20026;-89
2020/12/21 01:09:20;;;;;;;16.00;2.50;;;;;;;10.19;73.58;100155.59;5009172;28;20033;-89
2020/12/21 01:11:45;;;;;;;15.63;2.47;;;;;;;10.31;73.82;100134.63;4994543;28;20031;-89
2020/12/21 01:14:10;;;;;;;8.13;1.95;;;;;;;10.40;73.44;100117.38;4993289;28;20026;-89
2020/12/21 01:16:36;;;;;;;13.10;2.05;;;;;;;10.50;73.60;100122.78;4994600;28;20038;-89
2020/12/21 01:19:01;;;;;;;15.75;2.50;;;;;;;10.60;73.04;100118.56;4993170;28;20062;-89
2020/12/21 01:21:31;;;;;;;11.45;2.67;;;;;;;10.51;73.60;100119.25;4994351;28;20388;-89
2020/12/21 01:23:58;;;;;;;15.02;2.88;;;;;;;10.52;73.71;100113.88;5010945;28;20042;-89
2020/12/21 01:26:24;;;;;;;9.70;2.22;;;;;;;10.52;73.35;100102.53;5014093;28;20029;-89
2020/12/21 01:28:50;;;;;;;12.35;2.03;;;;;;;10.58;73.63;100109.13;5014152;28;20026;-89
2020/12/21 01:31:19;;;;;;;15.10;2.90;;;;;;;10.63;73.96;100107.84;5013743;28;20558;-89
2020/12/21 01:33:46;;;;;;;12.82;2.10;;;;;;;10.62;73.23;100090.41;5008780;28;20125;-89
2020/12/21 01:36:11;;;;;;;8.80;2.30;;;;;;;10.69;73.22;100094.25;4994060;28;20029;-89
2020/12/21 01:38:37;;;;;;;13.02;2.15;;;;;;;10.76;73.17;100084.13;4993878;28;20042;-89
2020/12/21 01:41:02;;;;;;;18.10;2.38;;;;;;;10.56;73.54;100074.28;4998405;28;20121;-89
2020/12/21 01:43:28;;;;;;;11.90;2.47;;;;;;;10.70;73.43;100067.06;5013580;28;20029;-89
2020/12/21 01:45:53;;;;;;;7.90;2.55;;;;;;;10.62;73.84;100066.75;5012098;28;20068;-89
2020/12/21 01:48:20;;;;;;;9.07;2.05;;;;;;;10.63;74.02;100060.59;5012202;28;20438;-89
2020/12/21 01:50:45;;;;;;;8.65;1.75;;;;;;;10.67;73.38;100062.03;5013361;28;20018;-89
2020/12/21 01:53:11;;;;;;;12.30;2.22;;;;;;;10.65;74.40;100052.59;5012179;28;20080;-90
2020/12/21 01:55:42;;;;;;;11.65;2.10;;;;;;;10.78;73.00;100049.88;5011974;28;20105;-90
2020/12/21 01:58:07;;;;;;;9.77;2.03;;;;;;;10.58;73.67;100046.94;5011758;28;20021;-90
2020/12/21 02:00:33;;;;;;;17.75;2.63;;;;;;;10.73;73.08;100041.53;5012118;28;20369;-90
2020/12/21 02:02:58;;;;;;;10.20;1.67;;;;;;;10.68;73.81;100032.22;5011897;28;20033;-89
2020/12/21 02:05:24;;;;;;;12.75;1.77;;;;;;;10.77;73.10;100035.09;5008726;28;20038;-89
2020/12/21 02:07:50;;;;;;;8.93;1.80;;;;;;;10.82;73.66;100032.94;4993502;28;20031;-89
2020/12/21 02:10:15;;;;;;;12.63;1.73;;;;;;;10.81;72.95;100034.75;4993539;28;20023;-89
2020/12/21 02:12:40;;;;;;;8.23;1.55;;;;;;;10.75;73.39;100021.25;4992313;28;20121;-90
2020/12/21 02:15:06;;;;;;;5.28;1.83;;;;;;;10.85;73.42;100027.47;4993339;28;20056;-89
2020/12/21 02:17:31;;;;;;;19.33;2.92;;;;;;;10.52;74.88;100021.16;4992118;28;20500;-90
2020/12/21 02:19:57;;;;;;;6.57;1.80;;;;;;;10.42;75.58;100020.16;5000962;28;20610;-89
2020/12/21 02:22:24;;;;;;;10.43;1.80;;;;;;;10.66;74.21;99997.34;5012528;28;20033;-90
2020/12/21 02:24:49;;;;;;;5.45;1.70;;;;;;;10.39;75.62;99988.91;5012090;28;20034;-89
2020/12/21 02:27:14;;;;;;;10.38;2.47;;;;;;;10.68;74.21;99984.94;5011599;28;20495;-89
2020/12/21 02:29:40;;;;;;;10.90;1.73;;;;;;;10.80;73.58;99982.31;5011435;28;20377;-89
2020/12/21 02:32:05;;;;;;;12.10;2.03;;;;;;;10.52;75.10;99971.28;5011168;28;20084;-89
2020/12/21 02:34:31;;;;;;;8.95;1.80;;;;;;;10.68;73.87;99973.59;5012239;28;20502;-88
2020/12/21 02:36:56;;;;;;;15.02;2.08;;;;;;;10.50;74.78;99967.94;5012353;28;20272;-89
2020/12/21 02:39:24;;;;;;;8.55;1.85;;;;;;;10.67;74.17;99957.00;4994312;28;20065;-89
2020/12/21 02:41:51;;;;;;;8.48;1.85;;;;;;;10.65;74.60;99943.16;4991741;28;20030;-89
2020/12/21 02:44:16;;;;;;;8.88;2.10;;;;;;;10.64;74.51;99948.50;4992828;28;20088;-89
2020/12/21 02:46:43;;;;;;;9.27;2.10;;;;;;;10.53;75.19;99936.22;4992881;28;20030;-89
2020/12/21 02:49:08;;;;;;;9.75;1.65;;;;;;;10.64;74.59;99915.25;4992967;28;20030;-89
2020/12/21 02:51:34;;;;;;;12.63;2.78;;;;;;;10.69;74.85;99897.31;4991528;28;20029;-89
2020/12/21 02:53:59;;;;;;;9.82;2.38;;;;;;;10.45;76.04;99893.97;5005544;28;20037;-89
2020/12/21 02:56:24;;;;;;;14.93;2.70;;;;;;;10.21;76.87;99884.31;5012305;28;20119;-89
2020/12/21 02:58:50;;;;;;;8.80;2.30;;;;;;;10.57;75.11;99877.28;5012315;28;20050;-89
2020/12/21 03:01:15;;;;;;;14.30;2.42;;;;;;;10.59;75.20;99869.28;5012353;28;20072;-89
2020/12/21 03:03:40;;;;;;;7.25;2.38;;;;;;;10.42;76.13;99846.94;5012219;28;20033;-89
2020/12/21 03:06:06;;;;;;;9.38;2.08;;;;;;;10.39;76.15;99844.56;5012121;28;20485;-89
2020/12/21 03:08:31;;;;;;;11.60;2.38;;;;;;;10.30;76.38;99838.22;5012071;28;20412;-89
2020/12/21 03:10:56;;;;;;;9.23;1.92;;;;;;;10.44;76.35;99831.91;5010940;28;20064;-89
2020/12/21 03:13:22;;;;;;;6.97;2.00;;;;;;;10.18;77.22;99826.00;5010833;28;20057;-89
2020/12/21 03:15:47;;;;;;;9.68;1.90;;;;;;;10.39;76.70;99821.78;5011977;28;20030;-89
2020/12/21 03:18:13;;;;;;;5.18;1.67;;;;;;;10.76;75.10;99812.81;5012166;28;20032;-89
2020/12/21 03:20:38;;;;;;;6.97;1.80;;;;;;;10.73;75.36;99807.84;5011915;28;20033;-89
2020/12/21 03:23:03;;;;;;;8.00;2.20;;;;;;;10.58;75.87;99807.22;5010611;28;20451;-89
2020/12/21 03:25:29;;;;;;;6.75;1.70;;;;;;;10.71;75.65;99784.31;5011389;28;20026;-89
2020/12/21 03:27:54;;;;;;;6.70;1.52;;;;;;;10.79;75.54;99770.59;5011127;28;20392;-89
2020/12/21 03:30:19;;;;;;;6.95;2.85;;;;;;;10.83;75.34;99761.50;5010187;28;20473;-89
2020/12/21 03:32:45;;;;;;;8.35;1.95;;;;;;;10.57;76.28;99767.00;5010605;28;20030;-89
2020/12/21 03:35:10;;;;;;;9.65;1.70;;;;;;;10.73;76.24;99761.41;5012041;28;20022;-89
2020/12/21 03:37:36;;;;;;;5.25;1.50;;;;;;;10.68;76.82;99758.28;5010666;28;20045;-89
2020/12/21 03:40:04;;;;;;;6.72;1.70;;;;;;;10.65;76.41;99762.00;5010617;28;20372;-89
2020/12/21 03:42:30;;;;;;;5.57;1.40;;;;;;;10.77;76.09;99751.50;5011748;28;20026;-89
2020/12/21 03:44:55;;;;;;;9.73;1.95;;;;;;;10.76;76.37;99737.50;5011544;28;20022;-89
2020/12/21 03:47:21;;;;;;;4.53;1.50;;;;;;;10.94;76.37;99737.84;5015734;28;20084;-89
2020/12/21 03:49:46;;;;;;;8.63;1.52;;;;;;;10.90;76.25;99741.69;5015522;28;20473;-90
2020/12/21 03:52:11;;;;;;;5.28;1.27;;;;;;;10.77;76.66;99738.34;5014611;28;20022;-90
2020/12/21 03:54:37;;;;;;;5.47;1.20;;;;;;;11.03;76.04;99723.13;5014326;28;20033;-90
2020/12/21 03:57:02;;;;;;;6.72;1.25;;;;;;;11.03;76.09;99705.56;5015195;28;20041;-90
2020/12/21 03:59:27;;;;;;;7.30;1.27;;;;;;;10.96;76.54;99700.94;5014280;28;20072;-89
2020/12/21 04:01:53;;;;;;;6.30;2.30;;;;;;;11.14;75.88;99702.09;5015550;28;20026;-90
2020/12/21 04:04:18;;;;;;;5.32;1.23;;;;;;;11.04;76.15;99702.00;5014177;28;20113;-90
2020/12/21 04:06:43;;;;;;;4.45;1.13;;;;;;;11.18;75.37;99707.94;5015503;28;20022;-89
2020/12/21 04:09:09;;;;;;;7.20;0.95;;;;;;;11.19;76.02;99689.38;5014251;28;20030;-89
2020/12/21 04:11:34;;;;;;;4.53;1.08;;;;;;;11.19;76.11;99672.78;5014983;28;20488;-89
2020/12/21 04:13:59;;;;;;;5.28;1.00;;;;;;;11.23;76.06;99676.84;5015117;28;20064;-90
2020/12/21 04:16:25;;;;;;;3.60;0.63;;;;;;;11.35;75.68;99678.44;5015403;28;20022;-90
2020/12/21 04:18:50;;;;;;;5.72;0.82;;;;;;;11.34;75.93;99658.41;5013917;28;20433;-90
2020/12/21 04:21:16;;;;;;;3.55;0.85;;;;;;;11.41;75.18;99654.28;5015434;28;20025;-90
2020/12/21 04:23:44;;;;;;;5.93;0.90;;;;;;;10.79;78.20;99640.13;5015513;28;20038;-89
2020/12/21 04:26:09;;;;;;;4.90;1.10;;;;;;;11.09;77.06;99621.00;5014902;28;20480;-89
2020/12/21 04:28:38;;;;;;;13.20;1.15;;;;;;;10.96;77.71;99625.63;5014921;28;20088;-90
2020/12/21 04:31:04;;;;;;;4.97;1.00;;;;;;;11.29;77.21;99618.50;5013674;28;20033;-89
2020/12/21 04:33:30;;;;;;;1.67;0.60;;;;;;;11.35;76.26;99604.84;5013757;28;20030;-89
2020/12/21 04:35:56;;;;;;;4.10;0.70;;;;;;;11.27;77.23;99604.66;5014993;28;20049;-89
2020/12/21 04:38:21;;;;;;;5.65;0.73;;;;;;;11.19;77.48;99604.47;5014836;28;20026;-89
2020/12/21 04:40:55;;;;;;;5.95;0.82;;;;;;;11.16;77.61;99604.72;5014422;28;20026;-89
2020/12/21 04:43:24;;;;;;;2.70;0.70;;;;;;;10.98;78.55;99593.94;5013174;28;20026;-89
2020/12/21 04:45:53;;;;;;;1.67;0.60;;;;;;;11.19;77.70;99568.53;5014867;28;20096;-89
2020/12/21 04:48:22;;;;;;;4.85;0.70;;;;;;;11.36;77.02;99559.22;5013445;28;20034;-89
2020/12/21 04:50:51;;;;;;;2.97;1.00;;;;;;;11.55;76.71;99547.13;5014619;28;20114;-89
2020/12/21 04:53:17;;;;;;;2.50;0.60;;;;;;;11.52;76.80;99535.91;5013255;28;20028;-89
2020/12/21 04:55:43;;;;;;;4.75;0.60;;;;;;;11.17;78.12;99538.09;5012514;28;20568;-89
2020/12/21 04:58:08;;;;;;;2.67;0.80;;;;;;;11.54;76.65;99514.75;5014559;28;20022;-89
2020/12/21 05:00:33;;;;;;;1.00;0.45;;;;;;;11.46;77.07;99517.22;5013262;28;20076;-89
2020/12/21 05:03:00;;;;;;;3.67;0.70;;;;;;;11.62;76.46;99499.16;5014407;28;20026;-89
2020/12/21 05:05:44;;;;;;;2.25;0.68;;;;;;;11.56;76.60;99483.09;5013082;28;20022;-88
2020/12/21 05:08:16;;;;;;;2.55;0.40;;;;;;;11.44;76.85;99477.91;5012912;28;20495;-89
2020/12/21 05:11:04;;;;;;;1.25;0.50;;;;;;;11.59;76.83;99493.31;5012859;28;20396;-89
2020/12/21 05:13:33;;;;;;;3.05;0.60;;;;;;;11.54;77.35;99487.66;5012756;28;20451;-89
2020/12/21 05:16:00;;;;;;;3.30;0.60;;;;;;;11.56;77.27;99480.47;5012602;28;20022;-89
2020/12/21 05:18:30;;;;;;;3.55;0.98;;;;;;;11.61;77.11;99478.25;5012511;28;20018;-89
2020/12/21 05:21:07;;;;;;;2.35;0.70;;;;;;;11.48;76.95;99463.53;5013831;28;20385;-89
2020/12/21 05:23:32;;;;;;;1.63;0.40;;;;;;;11.67;76.98;99456.66;5014032;28;20033;-89
2020/12/21 05:26:04;;;;;;;1.70;0.70;;;;;;;11.81;76.21;99447.56;5013934;28;20537;-89
2020/12/21 05:28:35;;;;;;;0.85;0.35;;;;;;;11.73;76.70;99424.59;5014048;28;20029;-89
2020/12/21 05:31:04;;;;;;;2.53;0.50;;;;;;;11.47;77.43;99425.09;5014014;28;20105;-89
2020/12/21 05:33:31;;;;;;;2.05;0.65;;;;;;;11.55;77.60;99415.69;5013815;28;20060;-89
2020/12/21 05:36:08;;;;;;;0.60;0.40;;;;;;;11.31;78.49;99401.94;5012885;28;20523;-89
2020/12/21 05:38:34;;;;;;;1.48;0.35;;;;;;;11.54;77.60;99403.53;5012469;28;20022;-88
2020/12/21 05:41:13;;;;;;;1.85;0.40;;;;;;;11.80;76.85;99403.84;5013714;28;20030;-88
2020/12/21 05:43:40;;;;;;;1.45;0.40;;;;;;;11.72;77.24;99407.16;5012192;28;20033;-88
2020/12/21 05:46:16;;;;;;;2.08;0.50;;;;;;;11.95;76.35;99402.50;5012150;28;20033;-88
2020/12/21 05:48:44;;;;;;;2.67;0.50;;;;;;;11.60;77.69;99403.81;5012329;28;20468;-88
2020/12/21 05:51:11;;;;;;;0.40;0.28;;;;;;;11.59;78.26;99391.63;5012116;28;20072;-88
2020/12/21 05:53:42;;;;;;;2.40;0.50;;;;;;;11.75;77.84;99380.59;5012201;28;20030;-88
2020/12/21 05:56:08;;;;;;;0.73;0.65;;;;;;;11.71;78.11;99380.03;5043646;23;20045;-84
2020/12/21 05:58:35;;;;;;;1.05;0.30;;;;;;;11.70;77.88;99372.28;5013085;28;20084;-84
2020/12/21 06:01:03;;;;;;;4.50;0.40;;;;;;;11.92;77.46;99373.00;5013430;28;20416;-84
2020/12/21 06:03:49;;;;;;;1.23;0.35;;;;;;;11.98;77.18;99364.56;5013262;28;20412;-84
2020/12/21 06:06:20;;;;;;;1.10;0.30;;;;;;;12.02;77.08;99352.78;4993174;28;20037;-84
2020/12/21 06:08:50;;;;;;;0.80;0.17;;;;;;;11.98;77.60;99336.44;4992789;28;20508;-84
2020/12/21 06:11:17;;;;;;;4.10;0.30;;;;;;;12.18;76.77;99328.53;4993367;28;20018;-84
2020/12/21 06:13:47;;;;;;;0.98;0.20;;;;;;;12.08;77.24;99326.78;4993460;28;20444;-84
2020/12/21 06:16:16;;;;;;;0.40;0.10;;;;;;;12.26;76.49;99321.63;4993397;28;20463;-84
2020/12/21 06:18:41;;;;;;;0.30;0.20;;;;;;;12.15;77.38;99319.13;4993380;28;20045;-84
2020/12/21 06:21:06;;;;;;;1.55;0.20;;;;;;;12.13;77.52;99305.28;4992971;28;20030;-84
2020/12/21 06:23:37;;;;;;;0.10;0.10;;;;;;;12.36;76.74;99299.69;4992894;28;20033;-84
2020/12/21 06:26:10;;;;;;;0.95;0.30;;;;;;;12.63;75.73;99297.09;4993193;28;20433;-84
2020/12/21 06:28:35;;;;;;;0.30;0.30;;;;;;;12.49;75.90;99295.75;4993184;28;20026;-84
2020/12/21 06:31:17;;;;;;;2.30;0.20;;;;;;;12.33;77.23;99277.13;4993286;28;20022;-84
2020/12/21 06:33:43;;;;;;;0.60;0.10;;;;;;;12.52;76.74;99262.22;4993158;28;20300;-84
2020/12/21 06:36:09;;;;;;;0.80;0.20;;;;;;;12.37;77.39;99259.25;4992642;28;20026;-84
2020/12/21 06:38:48;;;;;;;0.10;0.10;;;;;;;12.51;76.54;99264.03;4992920;28;20027;-84
2020/12/21 06:41:18;;;;;;;0.40;0.20;;;;;;;12.79;75.68;99253.50;4992984;28;20098;-84
2020/12/21 06:44:01;;;;;;;0.20;0.20;;;;;;;12.73;76.16;99249.66;4992913;28;20034;-84
2020/12/21 06:46:28;;;;;;;0.85;0.20;;;;;;;12.59;76.87;99243.06;4992966;28;20362;-84
2020/12/21 06:49:20;;;;;;;1.40;0.20;;;;;;;12.67;76.65;99248.44;4993158;28;20034;-84
2020/12/21 06:51:46;;;;;;;0.25;0.10;;;;;;;12.87;75.96;99232.53;4991170;28;20054;-84
2020/12/21 06:54:13;;;;;;;1.52;0.20;;;;;;;12.57;77.14;99221.31;4992918;28;20066;-84
2020/12/21 06:56:40;;;;;;;0.65;0.30;;;;;;;12.85;76.31;99226.56;4992545;28;20036;-84
2020/12/21 06:59:19;;;;;;;0.63;0.40;;;;;;;12.84;76.53;99220.50;4992657;28;20026;-84
2020/12/21 07:01:47;;;;;;;1.20;0.20;;;;;;;12.85;76.53;99218.69;4992621;28;20389;-84
2020/12/21 07:04:20;;;;;;;1.13;0.40;;;;;;;12.79;76.54;99200.84;4992512;28;20030;-84
2020/12/21 07:06:46;;;;;;;1.70;0.50;;;;;;;12.99;75.75;99199.72;4992841;28;20034;-84
2020/12/21 07:09:13;;;;;;;0.85;0.30;;;;;;;12.84;76.94;99198.59;4992415;28;20025;-84
2020/12/21 07:11:41;;;;;;;0.30;0.10;;;;;;;12.86;76.55;99191.38;4992657;28;20034;-84
2020/12/21 07:14:07;;;;;;;0.32;0.20;;;;;;;12.87;76.48;99193.00;4992455;28;20030;-84
2020/12/21 07:16:33;;;;;;;1.00;0.30;;;;;;;13.15;75.66;99190.31;4988094;28;20026;-84
2020/12/21 07:18:59;;;;;;;0.68;0.32;;;;;;;13.21;75.06;99194.97;4986684;28;20106;-84
2020/12/21 07:21:24;;;;;;;0.47;0.30;;;;;;;13.18;75.72;99190.84;4971363;28;20133;-84
2020/12/21 07:23:50;;;;;;;0.45;0.30;;;;;;;12.98;76.58;99184.91;4985111;28;20057;-84
2020/12/21 07:26:16;;;;;;;1.85;0.30;;;;;;;12.98;76.82;99173.53;4991212;28;20109;-84
2020/12/21 07:28:46;;;;;;;0.10;0.10;;;;;;;13.21;75.82;99173.91;4991410;28;20488;-84
2020/12/21 07:31:16;;;;;;;1.10;0.20;;;;;;;13.19;75.92;99176.72;4991080;28;20026;-84
2020/12/21 07:33:52;;;;;;;2.17;0.30;;;;;;;13.34;75.21;99179.66;4991673;28;20511;-84
2020/12/21 07:36:20;;;;;;;1.60;0.40;;;;;;;13.39;75.49;99181.81;4991615;28;20125;-84
2020/12/21 07:38:46;;;;;;;0.20;0.20;;;;;;;13.32;75.94;99176.34;4991445;28;20030;-84
2020/12/21 07:41:13;;;;;;;0.47;0.28;;;;;;;13.42;75.14;99176.25;4991926;28;20074;-84
2020/12/21 07:43:42;;;;;;;1.05;0.28;;;;;;;13.44;75.35;99179.56;4992008;28;20031;-85
2020/12/21 07:46:19;;;;;;;1.40;0.28;;;;;;;13.61;74.91;99177.91;4990714;28;20022;-85
2020/12/21 07:48:46;;;;;;;1.48;0.68;;;;;;;13.62;74.87;99182.19;4991733;28;20027;-85
2020/12/21 07:51:13;;;;;;;0.52;0.30;;;;;;;13.65;74.99;99177.44;4991460;28;20023;-85
2020/12/21 07:53:40;;;;;;;1.90;0.50;;;;;;;13.66;74.64;99189.66;4991745;28;20080;-84
2020/12/21 07:56:06;;;;;;;0.70;0.30;;;;;;;13.62;75.16;99183.00;4991331;28;20038;-85
2020/12/21 07:58:35;;;;;;;2.05;0.30;;;;;;;13.63;74.59;99175.94;4991474;28;20037;-85
2020/12/21 08:01:00;;;;;;;1.38;0.50;;;;;;;13.45;76.23;99175.97;4990484;28;20063;-86
2020/12/21 08:03:28;;;;;;;0.93;0.57;;;;;;;13.63;75.62;99181.22;4991930;28;20035;-86
2020/12/21 08:06:11;;;;;;;2.35;0.70;;;;;;;13.57;75.79;99184.47;4992060;28;20404;-86
2020/12/21 08:08:38;;;;;;;0.95;0.52;;;;;;;13.56;75.76;99172.25;4991759;28;20354;-86
2020/12/21 08:11:03;;;;;;;3.53;0.70;;;;;;;13.66;75.45;99175.59;4989551;28;20121;-86
2020/12/21 08:13:29;;;;;;;1.25;0.52;;;;;;;13.79;75.27;99181.31;4991356;28;20485;-86
2020/12/21 08:16:07;;;;;;;2.05;0.90;;;;;;;13.80;75.37;99182.97;4990622;28;20076;-86
2020/12/21 08:18:33;;;;;;;1.08;0.57;;;;;;;13.85;74.93;99188.59;4991557;28;20456;-86
2020/12/21 08:20:58;;;;;;;1.63;1.02;;;;;;;13.82;75.72;99194.22;4991601;28;20118;-86
2020/12/21 08:23:29;;;;;;;3.83;1.02;;;;;;;13.95;75.68;99177.13;4990300;28;20031;-86
2020/12/21 08:25:55;;;;;;;3.28;1.50;;;;;;;13.76;76.29;99157.88;4991562;28;20026;-85
2020/12/21 08:28:39;;;;;;;2.10;1.50;;;;;;;13.98;76.03;99166.25;4996217;28;20038;-86
2020/12/21 08:31:11;;;;;;;4.93;2.35;;;;;;;13.94;75.92;99175.47;4992297;28;20027;-86
2020/12/21 08:33:38;;;;;;;4.10;2.97;;;;;;;14.13;75.83;99179.69;4995156;28;20452;-86
2020/12/21 08:36:18;;;;;;;4.65;3.20;;;;;;;14.11;75.62;99179.84;4995084;28;20045;-86
2020/12/21 08:38:44;;;;;;;4.93;3.28;;;;;;;14.17;75.62;99188.97;4995011;28;20114;-86
2020/12/21 08:41:09;;;;;;;5.68;3.67;;;;;;;14.19;76.12;99187.81;4993842;28;20101;-85
2020/12/21 08:43:35;;;;;;;9.73;4.43;;;;;;;14.25;76.01;99183.72;4994707;28;20026;-85
2020/12/21 08:46:04;;;;;;;11.27;4.63;;;;;;;14.16;76.45;99188.13;5009330;28;20034;-85
2020/12/21 08:48:29;;;;;;;7.82;4.88;;;;;;;14.21;76.05;99195.56;4995033;28;20019;-85
2020/12/21 08:50:55;;;;;;;5.05;3.95;;;;;;;14.38;76.17;99191.22;4994542;28;20093;-85
2020/12/21 08:53:20;;;;;;;6.80;4.47;;;;;;;14.38;76.30;99188.56;4994880;28;20031;-85
2020/12/21 08:55:45;;;;;;;4.90;3.80;;;;;;;14.38;76.09;99180.66;4993657;28;20030;-85
2020/12/21 08:58:10;;;;;;;4.35;3.50;;;;;;;14.45;76.40;99184.28;4993349;28;20022;-85
2020/12/21 09:00:36;;;;;;;5.05;4.47;;;;;;;14.28;76.72;99204.53;4993689;28;20030;-85
2020/12/21 09:03:01;;;;;;;6.88;3.40;;;;;;;14.48;76.32;99198.00;4994657;28;20026;-85
2020/12/21 09:05:26;;;;;;;9.73;4.43;;;;;;;14.48;75.86;99194.56;4994067;28;20401;-85
2020/12/21 09:07:52;;;;;;;4.00;3.47;;;;;;;14.44;76.33;99201.97;4994290;28;20476;-85
2020/12/21 09:10:17;;;;;;;4.72;3.33;;;;;;;14.51;76.25;99196.84;4994333;28;20669;-85
2020/12/21 09:12:43;;;;;;;4.90;2.90;;;;;;;14.50;76.21;99197.03;4994562;28;20412;-85
2020/12/21 09:15:08;;;;;;;7.40;2.45;;;;;;;14.60;76.25;99193.31;4993235;28;20435;-85
2020/12/21 09:17:33;;;;;;;5.15;2.20;;;;;;;14.70;75.82;99182.59;4994459;28;20476;-85
2020/12/21 09:19:59;;;;;;;7.28;2.10;;;;;;;14.62;76.04;99193.97;4994474;28;20420;-85
2020/12/21 09:22:24;;;;;;;3.45;1.55;;;;;;;14.66;75.42;99182.09;4994202;28;20288;-85
2020/12/21 09:24:50;;;;;;;1.70;1.60;;;;;;;14.44;76.37;99193.22;4994231;28;20023;-85
2020/12/21 09:27:15;;;;;;;3.80;1.33;;;;;;;14.72;75.63;99203.59;4994220;28;20022;-85
2020/12/21 09:29:41;;;;;;;7.32;1.30;;;;;;;14.71;75.75;99215.13;4994609;28;20030;-86
2020/12/21 09:32:06;;;;;;;1.77;1.05;;;;;;;14.87;75.46;99209.91;5006487;28;20117;-86
2020/12/21 09:34:31;;;;;;;2.80;0.90;;;;;;;14.87;75.02;99210.72;4993550;28;20093;-86
2020/12/21 09:36:58;;;;;;;5.00;1.25;;;;;;;14.84;75.25;99200.47;4993705;28;20034;-86
2020/12/21 09:39:24;;;;;;;4.45;1.27;;;;;;;14.72;75.94;99206.22;4993730;28;20030;-86
2020/12/21 09:41:51;;;;;;;4.05;0.82;;;;;;;14.86;75.24;99208.25;4993561;28;20358;-86
2020/12/21 09:44:16;;;;;;;1.70;0.80;;;;;;;14.66;75.94;99205.88;4989842;28;20100;-86
2020/12/21 09:46:42;;;;;;;4.40;1.30;;;;;;;14.81;75.55;99210.53;4992856;28;20038;-86
2020/12/21 09:49:07;;;;;;;0.90;0.63;;;;;;;14.80;75.70;99209.72;4993612;28;20030;-86
2020/12/21 09:51:32;;;;;;;5.40;0.98;;;;;;;14.86;75.09;99203.78;4993840;28;20030;-87
2020/12/21 09:54:04;;;;;;;4.00;0.60;;;;;;;15.01;74.94;99217.22;4986032;28;20022;-87
2020/12/21 09:56:29;;;;;;;1.83;0.60;;;;;;;14.93;74.89;99217.19;4991251;28;20412;-86
2020/12/21 09:58:54;;;;;;;1.08;0.50;;;;;;;14.64;76.76;99218.41;4992419;28;20038;-86
2020/12/21 10:01:29;;;;;;;1.25;0.77;;;;;;;14.63;76.52;99214.13;4993280;28;20039;-87
2020/12/21 10:03:54;;;;;;;2.55;1.05;;;;;;;14.92;75.54;99210.22;4993354;28;20034;-86
2020/12/21 10:06:19;;;;;;;3.05;0.80;;;;;;;15.01;75.56;99227.78;4993319;28;20031;-85
2020/12/21 10:08:45;;;;;;;2.63;0.95;;;;;;;15.03;75.46;99214.41;4990454;28;20030;-86
2020/12/21 10:11:10;;;;;;;3.63;0.50;;;;;;;15.09;75.30;99219.03;4992748;28;20180;-86
2020/12/21 10:13:36;;;;;;;2.00;0.50;;;;;;;15.07;74.76;99227.13;4986657;28;20026;-86
2020/12/21 10:16:01;;;;;;;1.55;0.50;;;;;;;14.99;75.51;99228.94;4985229;28;20029;-87
2020/12/21 10:18:27;;;;;;;1.67;0.50;;;;;;;15.00;75.52;99239.31;4992932;28;20036;-86
2020/12/21 10:20:52;;;;;;;1.00;0.65;;;;;;;15.10;75.33;99236.53;4989770;28;20018;-86
2020/12/21 10:23:17;;;;;;;2.08;0.45;;;;;;;15.18;74.93;99222.50;4991530;28;20034;-87
2020/12/21 10:25:43;;;;;;;2.05;0.70;;;;;;;15.12;75.09;99239.03;4992888;28;20361;-86
2020/12/21 10:28:08;;;;;;;2.38;0.77;;;;;;;15.30;74.68;99244.19;4990135;28;20105;-86
2020/12/21 10:30:34;;;;;;;2.17;0.98;;;;;;;15.32;74.29;99247.50;4990851;28;20409;-86
2020/12/21 10:33:01;;;;;;;0.68;0.50;;;;;;;15.31;75.00;99236.09;4991088;28;20034;-85
2020/12/21 10:35:27;;;;;;;2.90;0.50;;;;;;;15.34;74.24;99245.50;4986953;28;20034;-85
2020/12/21 10:37:52;;;;;;;3.22;0.70;;;;;;;14.90;76.31;99235.19;4991184;28;20010;-85
2020/12/21 10:40:18;;;;;;;2.08;0.70;;;;;;;15.26;75.06;99235.75;4992716;28;20042;-86
2020/12/21 10:42:43;;;;;;;0.80;0.60;;;;;;;15.40;74.47;99243.06;4990296;28;20014;-86
2020/12/21 10:45:08;;;;;;;0.90;0.40;;;;;;;15.26;75.23;99246.31;4992015;28;20029;-86
2020/12/21 10:47:34;;;;;;;2.45;0.90;;;;;;;15.22;75.20;99221.19;4988886;28;20026;-86
2020/12/21 10:49:59;;;;;;;0.68;0.50;;;;;;;15.00;76.35;99218.19;4991363;28;20168;-86
2020/12/21 10:52:24;;;;;;;0.82;0.50;;;;;;;15.32;75.05;99229.78;4987748;28;20108;-85
2020/12/21 10:54:50;;;;;;;1.73;0.75;;;;;;;15.43;75.07;99232.13;4988496;28;20041;-86
2020/12/21 10:57:15;;;;;;;3.30;0.60;;;;;;;15.25;75.58;99219.06;4991368;28;20062;-86
2020/12/21 10:59:40;;;;;;;1.88;0.50;;;;;;;15.36;75.33;99235.59;4991944;28;20480;-86
2020/12/21 11:02:06;;;;;;;2.58;1.02;;;;;;;15.10;75.75;99222.50;4991716;28;20441;-86
2020/12/21 11:04:31;;;;;;;2.00;0.50;;;;;;;15.12;76.14;99223.16;4991461;28;20022;-86
2020/12/21 11:06:57;;;;;;;2.53;0.65;;;;;;;15.36;75.01;99233.78;4990542;28;20038;-86
2020/12/21 11:09:22;;;;;;;0.95;0.57;;;;;;;15.50;74.91;99240.25;4987581;28;20015;-86
2020/12/21 11:11:47;;;;;;;2.00;0.40;;;;;;;15.49;74.67;99233.28;4986276;28;20436;-86
2020/12/21 11:14:13;;;;;;;0.57;0.40;;;;;;;15.45;75.08;99239.91;4986856;28;20058;-86
2020/12/21 11:16:38;;;;;;;1.60;0.50;;;;;;;15.52;74.70;99245.34;4988544;28;20026;-86
2020/12/21 11:19:03;;;;;;;1.70;0.40;;;;;;;15.58;74.50;99240.25;4988437;28;20417;-86
2020/12/21 11:21:35;;;;;;;0.47;0.20;;;;;;;15.56;74.78;99230.81;4990032;28;20026;-86
2020/12/21 11:24:01;;;;;;;1.20;0.35;;;;;;;15.11;76.24;99226.81;4989297;28;20441;-86
2020/12/21 11:26:26;;;;;;;2.58;0.45;;;;;;;15.28;75.43;99236.41;4989172;28;20058;-86
2020/12/21 11:28:51;;;;;;;0.90;0.40;;;;;;;15.25;76.48;99236.75;4989920;28;20369;-86
2020/12/21 11:31:17;;;;;;;0.30;0.20;;;;;;;15.40;75.68;99234.28;4986264;28;20030;-86